Weather at Aberdeen Regional Airport

Public forecast

Using degrees Fahrenheit for public forecast. Weather courtesy of forecast.io.

Current aviation weather report (METAR) for Aberdeen Regional Airport

Retrieved 2021/03/01 02:53 UTC (37 minutes ago):

KABR 010253Z AUTO 21007KT 10SM CLR M02/M06 A2999 RMK AO2 SLP174 T10171061 56004

Aviation forecast (TAF) for Aberdeen Regional Airport

Retrieved 2021-03-01 00:22 UTC (3 hours ago):

TAF KABR 282320Z 0100/0124 26009KT P6SM SCT050 BKN100 FM010800 36016G22KT P6SM FEW200 FM011500 05009KT P6SM FEW250 FM012300 18013G19KT P6SM SKC